首页
METAR-TAF:

METAR-TAF

机场 :

New River Valley Airport

都柏林, 弗吉尼亚州, 美国

纬度: 37-08N, 经度: 080-41W, 海拔: 642米

当前天气观测

该预报发布于19分钟前的19:15 UTC
风速8节,风向西,有时为15节阵风
温度 28°C
湿度 51%
气压 1024 hPa
能見度: 16.1公里
天空无云

METAR: KPSK 231915Z AUTO 27008G15KT 10SM CLR 28/17 A3024 RMK AO2 T02830166

时间: 15:34 (19:34 UTC)


TAF: 丢失

超过4000个机场的气象观测和天气预报(METAR&TAF报告)。

可查询的气象台以黄色和红色小点在地图上表示。

将鼠标移到小点上方,可查看气象台名称。

然后点击查看天气观测和预报。

如需切换地图:点击带黑十字的绿色按钮放大地图;点击带横线的绿色按钮缩小地图;或者点击绿色箭头查看邻近地区的地图。


METAR-TAF: